African Loon — 3EFF9 — position and weather

sailwx.info

Track history (hours):
 
Tides and Currents Weather Stations Pressure Air Temp Water Temp Dewpoint Dewpoint Depression Visibility Wind Speed Wind Dir Waves Ship Positions

African Loon

Last reported at 2018-Feb-21 11:12 UTC. Time now 2018-Feb-21 21:32 UTC.
Position N 31°07' E 122°17'.

Length 200 m; draft 10.3 m.

Type: Cargo ship. MMSI: 374319000.

Date/timePositionNaut miles runAvg speedWind from/ knotsBaromVisibWave heightAir tempDewpointWater temp
2018-Feb-21 11:12N 31°07' E 122°17'312.6
2018-Feb-21 10:58N 31°08' E 122°14'613.7
2018-Feb-21 10:30N 31°12' E 122°08'814.2
2018-Feb-21 09:54N 31°15' E 121°59'713.6
2018-Feb-21 09:23N 31°16' E 121°51'  
2018-Feb-13 21:20N 31°49' E 120°55'410.6
2018-Feb-13 20:56N 31°47' E 120°59'511.7
2018-Feb-13 20:30N 31°45' E 121°05'611.8
2018-Feb-13 20:00N 31°41' E 121°10'612.1
2018-Feb-13 19:30N 31°38' E 121°15'612.4
2018-Feb-13 19:01N 31°33' E 121°20'612.2
2018-Feb-13 18:31N 31°30' E 121°26'510.0
2018-Feb-13 18:00N 31°26' E 121°30'4 7.6
2018-Feb-13 17:28N 31°24' E 121°34'11 9.8
2018-Feb-13 16:22N 31°19' E 121°45'410.6
2018-Feb-13 16:00N 31°17' E 121°49'611.9
2018-Feb-13 15:30N 31°15' E 121°56'612.0
2018-Feb-13 15:00N 31°14' E 122°03'611.4
2018-Feb-13 14:30N 31°12' E 122°09'714.1
2018-Feb-13 14:01N 31°08' E 122°16'  
Track history (hours):
 
Tides and Currents Weather Stations Pressure Air Temp Water Temp Dewpoint Dewpoint Depression Visibility Wind Speed Wind Dir Waves Ship Positions

African Loon

Last reported at 2018-Feb-21 11:12 UTC. Time now 2018-Feb-21 21:32 UTC.
Position N 31°07' E 122°17'.

Length 200 m; draft 10.3 m.

Type: Cargo ship. MMSI: 374319000.

Date/timePositionNaut miles runAvg speedWind from/ knotsBaromVisibWave heightAir tempDewpointWater temp
2018-Feb-21 11:12N 31°07' E 122°17'312.6
2018-Feb-21 10:58N 31°08' E 122°14'613.7
2018-Feb-21 10:30N 31°12' E 122°08'814.2
2018-Feb-21 09:54N 31°15' E 121°59'713.6
2018-Feb-21 09:23N 31°16' E 121°51'  
2018-Feb-13 21:20N 31°49' E 120°55'410.6
2018-Feb-13 20:56N 31°47' E 120°59'511.7
2018-Feb-13 20:30N 31°45' E 121°05'611.8
2018-Feb-13 20:00N 31°41' E 121°10'612.1
2018-Feb-13 19:30N 31°38' E 121°15'612.4
2018-Feb-13 19:01N 31°33' E 121°20'612.2
2018-Feb-13 18:31N 31°30' E 121°26'510.0
2018-Feb-13 18:00N 31°26' E 121°30'4 7.6
2018-Feb-13 17:28N 31°24' E 121°34'11 9.8
2018-Feb-13 16:22N 31°19' E 121°45'410.6
2018-Feb-13 16:00N 31°17' E 121°49'611.9
2018-Feb-13 15:30N 31°15' E 121°56'612.0
2018-Feb-13 15:00N 31°14' E 122°03'611.4
2018-Feb-13 14:30N 31°12' E 122°09'714.1
2018-Feb-13 14:01N 31°08' E 122°16'  

Dump ship's entire track history